sensor_id;sensor_type;location;lat;lon;timestamp;P1;durP1;ratioP1;P2;durP2;ratioP2
28605;SDS011;46498;49.968;7.754;2022-11-20T00:02:15;47.15;;;17.92;;
28605;SDS011;46498;49.968;7.754;2022-11-20T00:07:16;76.97;;;24.12;;
28605;SDS011;46498;49.968;7.754;2022-11-20T00:12:17;112.80;;;20.67;;
28605;SDS011;46498;49.968;7.754;2022-11-20T00:17:18;52.03;;;20.90;;
28605;SDS011;46498;49.968;7.754;2022-11-20T00:22:19;41.35;;;16.50;;
28605;SDS011;46498;49.968;7.754;2022-11-20T00:27:20;34.60;;;14.07;;
28605;SDS011;46498;49.968;7.754;2022-11-20T00:32:20;39.17;;;13.18;;
28605;SDS011;46498;49.968;7.754;2022-11-20T00:37:22;40.60;;;17.27;;
28605;SDS011;46498;49.968;7.754;2022-11-20T00:42:22;40.45;;;15.52;;
28605;SDS011;46498;49.968;7.754;2022-11-20T00:47:23;50.90;;;14.63;;
28605;SDS011;46498;49.968;7.754;2022-11-20T00:52:24;76.68;;;19.08;;
28605;SDS011;46498;49.968;7.754;2022-11-20T00:57:25;100.55;;;21.00;;
28605;SDS011;46498;49.968;7.754;2022-11-20T01:02:26;67.68;;;18.90;;
28605;SDS011;46498;49.968;7.754;2022-11-20T01:07:27;74.18;;;19.08;;
28605;SDS011;46498;49.968;7.754;2022-11-20T01:12:28;104.57;;;19.25;;
28605;SDS011;46498;49.968;7.754;2022-11-20T01:17:29;60.30;;;16.45;;
28605;SDS011;46498;49.968;7.754;2022-11-20T01:27:33;43.22;;;14.98;;
28605;SDS011;46498;49.968;7.754;2022-11-20T01:32:33;77.62;;;18.65;;
28605;SDS011;46498;49.968;7.754;2022-11-20T01:37:34;37.67;;;14.65;;
28605;SDS011;46498;49.968;7.754;2022-11-20T01:42:35;40.53;;;14.18;;
28605;SDS011;46498;49.968;7.754;2022-11-20T01:47:55;34.58;;;12.80;;
28605;SDS011;46498;49.968;7.754;2022-11-20T01:53:00;32.30;;;12.82;;
28605;SDS011;46498;49.968;7.754;2022-11-20T01:58:04;28.10;;;11.43;;
28605;SDS011;46498;49.968;7.754;2022-11-20T02:03:11;35.70;;;13.02;;
28605;SDS011;46498;49.968;7.754;2022-11-20T02:08:15;35.83;;;13.85;;
28605;SDS011;46498;49.968;7.754;2022-11-20T02:13:16;42.45;;;15.63;;
28605;SDS011;46498;49.968;7.754;2022-11-20T02:18:35;35.58;;;13.77;;
28605;SDS011;46498;49.968;7.754;2022-11-20T02:28:58;41.13;;;15.38;;
28605;SDS011;46498;49.968;7.754;2022-11-20T02:39:02;32.10;;;12.23;;
28605;SDS011;46498;49.968;7.754;2022-11-20T02:44:04;36.90;;;13.73;;
28605;SDS011;46498;49.968;7.754;2022-11-20T02:49:06;26.95;;;11.10;;
28605;SDS011;46498;49.968;7.754;2022-11-20T02:54:07;32.30;;;11.60;;
28605;SDS011;46498;49.968;7.754;2022-11-20T02:59:07;29.95;;;12.88;;
28605;SDS011;46498;49.968;7.754;2022-11-20T03:04:08;26.90;;;11.90;;
28605;SDS011;46498;49.968;7.754;2022-11-20T03:09:09;27.48;;;11.15;;
28605;SDS011;46498;49.968;7.754;2022-11-20T03:14:10;23.67;;;9.77;;
28605;SDS011;46498;49.968;7.754;2022-11-20T03:19:11;23.60;;;10.02;;
28605;SDS011;46498;49.968;7.754;2022-11-20T03:24:12;23.17;;;9.13;;
28605;SDS011;46498;49.968;7.754;2022-11-20T03:29:13;20.37;;;8.80;;
28605;SDS011;46498;49.968;7.754;2022-11-20T03:34:14;17.48;;;8.38;;
28605;SDS011;46498;49.968;7.754;2022-11-20T03:39:15;20.00;;;9.00;;
28605;SDS011;46498;49.968;7.754;2022-11-20T03:44:16;22.37;;;9.95;;
28605;SDS011;46498;49.968;7.754;2022-11-20T03:49:17;25.58;;;10.50;;
28605;SDS011;46498;49.968;7.754;2022-11-20T03:54:17;29.00;;;10.93;;
28605;SDS011;46498;49.968;7.754;2022-11-20T03:59:18;29.48;;;11.35;;
28605;SDS011;46498;49.968;7.754;2022-11-20T04:04:20;35.90;;;13.25;;
28605;SDS011;46498;49.968;7.754;2022-11-20T04:09:20;33.03;;;13.15;;
28605;SDS011;46498;49.968;7.754;2022-11-20T04:14:22;33.88;;;13.27;;
28605;SDS011;46498;49.968;7.754;2022-11-20T04:19:22;36.88;;;13.07;;
28605;SDS011;46498;49.968;7.754;2022-11-20T04:24:24;38.55;;;13.65;;
28605;SDS011;46498;49.968;7.754;2022-11-20T04:29:25;31.27;;;12.45;;
28605;SDS011;46498;49.968;7.754;2022-11-20T04:34:25;33.13;;;12.82;;
28605;SDS011;46498;49.968;7.754;2022-11-20T04:39:26;33.40;;;12.95;;
28605;SDS011;46498;49.968;7.754;2022-11-20T04:44:27;93.22;;;15.60;;
28605;SDS011;46498;49.968;7.754;2022-11-20T04:49:28;36.40;;;12.07;;
28605;SDS011;46498;49.968;7.754;2022-11-20T04:54:29;27.58;;;11.82;;
28605;SDS011;46498;49.968;7.754;2022-11-20T04:59:30;33.83;;;12.75;;
28605;SDS011;46498;49.968;7.754;2022-11-20T05:04:31;35.33;;;11.60;;
28605;SDS011;46498;49.968;7.754;2022-11-20T05:09:32;30.73;;;11.50;;
28605;SDS011;46498;49.968;7.754;2022-11-20T05:14:32;34.20;;;11.25;;
28605;SDS011;46498;49.968;7.754;2022-11-20T05:19:33;27.27;;;10.20;;
28605;SDS011;46498;49.968;7.754;2022-11-20T05:24:34;25.65;;;10.10;;
28605;SDS011;46498;49.968;7.754;2022-11-20T05:29:35;23.95;;;9.07;;
28605;SDS011;46498;49.968;7.754;2022-11-20T05:34:36;30.48;;;12.32;;
28605;SDS011;46498;49.968;7.754;2022-11-20T05:39:36;31.37;;;10.90;;
28605;SDS011;46498;49.968;7.754;2022-11-20T05:44:37;31.35;;;11.18;;
28605;SDS011;46498;49.968;7.754;2022-11-20T05:49:38;27.00;;;9.52;;
28605;SDS011;46498;49.968;7.754;2022-11-20T05:54:39;27.10;;;11.00;;
28605;SDS011;46498;49.968;7.754;2022-11-20T05:59:40;32.65;;;12.52;;
28605;SDS011;46498;49.968;7.754;2022-11-20T06:04:41;30.60;;;11.23;;
28605;SDS011;46498;49.968;7.754;2022-11-20T06:09:42;29.27;;;11.40;;
28605;SDS011;46498;49.968;7.754;2022-11-20T06:14:43;27.15;;;10.95;;
28605;SDS011;46498;49.968;7.754;2022-11-20T06:19:43;24.12;;;10.00;;
28605;SDS011;46498;49.968;7.754;2022-11-20T06:24:44;25.12;;;9.85;;
28605;SDS011;46498;49.968;7.754;2022-11-20T06:29:45;28.65;;;10.43;;
28605;SDS011;46498;49.968;7.754;2022-11-20T06:34:46;27.30;;;10.55;;
28605;SDS011;46498;49.968;7.754;2022-11-20T06:39:47;24.15;;;10.15;;
28605;SDS011;46498;49.968;7.754;2022-11-20T06:44:47;25.30;;;10.32;;
28605;SDS011;46498;49.968;7.754;2022-11-20T06:49:49;26.12;;;11.82;;
28605;SDS011;46498;49.968;7.754;2022-11-20T06:54:49;24.70;;;9.63;;
28605;SDS011;46498;49.968;7.754;2022-11-20T06:59:50;26.30;;;9.82;;
28605;SDS011;46498;49.968;7.754;2022-11-20T07:04:51;24.35;;;10.82;;
28605;SDS011;46498;49.968;7.754;2022-11-20T07:09:52;25.73;;;8.82;;
28605;SDS011;46498;49.968;7.754;2022-11-20T07:14:53;28.00;;;11.12;;
28605;SDS011;46498;49.968;7.754;2022-11-20T07:19:54;22.75;;;9.70;;
28605;SDS011;46498;49.968;7.754;2022-11-20T07:24:54;25.83;;;10.45;;
28605;SDS011;46498;49.968;7.754;2022-11-20T07:29:55;35.00;;;11.43;;
28605;SDS011;46498;49.968;7.754;2022-11-20T07:34:57;29.65;;;10.95;;
28605;SDS011;46498;49.968;7.754;2022-11-20T07:39:57;106.70;;;14.45;;
28605;SDS011;46498;49.968;7.754;2022-11-20T07:44:58;98.47;;;13.32;;
28605;SDS011;46498;49.968;7.754;2022-11-20T07:49:59;28.05;;;11.35;;
28605;SDS011;46498;49.968;7.754;2022-11-20T07:55:00;38.58;;;11.80;;
28605;SDS011;46498;49.968;7.754;2022-11-20T08:00:02;37.38;;;12.43;;
28605;SDS011;46498;49.968;7.754;2022-11-20T08:05:12;21.92;;;10.00;;
28605;SDS011;46498;49.968;7.754;2022-11-20T08:10:13;31.45;;;11.07;;
28605;SDS011;46498;49.968;7.754;2022-11-20T08:20:17;39.22;;;11.90;;
28605;SDS011;46498;49.968;7.754;2022-11-20T08:25:18;29.65;;;12.27;;
28605;SDS011;46498;49.968;7.754;2022-11-20T08:30:18;27.42;;;12.27;;
28605;SDS011;46498;49.968;7.754;2022-11-20T08:35:20;30.73;;;12.93;;
28605;SDS011;46498;49.968;7.754;2022-11-20T08:40:21;31.48;;;12.55;;
28605;SDS011;46498;49.968;7.754;2022-11-20T08:45:22;28.35;;;12.25;;
28605;SDS011;46498;49.968;7.754;2022-11-20T08:50:23;42.85;;;18.65;;
28605;SDS011;46498;49.968;7.754;2022-11-20T08:55:24;47.72;;;20.25;;
28605;SDS011;46498;49.968;7.754;2022-11-20T09:00:25;41.88;;;17.73;;
28605;SDS011;46498;49.968;7.754;2022-11-20T09:05:26;24.87;;;11.77;;
28605;SDS011;46498;49.968;7.754;2022-11-20T09:10:28;29.95;;;14.60;;
28605;SDS011;46498;49.968;7.754;2022-11-20T09:15:29;41.60;;;20.40;;
28605;SDS011;46498;49.968;7.754;2022-11-20T09:20:29;26.50;;;14.23;;
28605;SDS011;46498;49.968;7.754;2022-11-20T09:25:31;29.63;;;15.90;;
28605;SDS011;46498;49.968;7.754;2022-11-20T09:30:31;34.20;;;18.05;;
28605;SDS011;46498;49.968;7.754;2022-11-20T09:35:32;25.23;;;12.30;;
28605;SDS011;46498;49.968;7.754;2022-11-20T09:40:34;21.40;;;10.30;;
28605;SDS011;46498;49.968;7.754;2022-11-20T09:45:37;26.80;;;12.55;;
28605;SDS011;46498;49.968;7.754;2022-11-20T09:58:59;22.65;;;11.70;;
28605;SDS011;46498;49.968;7.754;2022-11-20T10:04:18;31.12;;;13.15;;
28605;SDS011;46498;49.968;7.754;2022-11-20T10:09:24;28.62;;;14.52;;
28605;SDS011;46498;49.968;7.754;2022-11-20T10:22:00;34.63;;;15.35;;
28605;SDS011;46498;49.968;7.754;2022-11-20T10:30:13;25.95;;;12.18;;
28605;SDS011;46498;49.968;7.754;2022-11-20T10:35:19;25.95;;;13.07;;
28605;SDS011;46498;49.968;7.754;2022-11-20T10:40:46;26.08;;;12.95;;
28605;SDS011;46498;49.968;7.754;2022-11-20T10:51:59;31.23;;;16.40;;
28605;SDS011;46498;49.968;7.754;2022-11-20T11:02:54;20.55;;;11.70;;
28605;SDS011;46498;49.968;7.754;2022-11-20T11:07:57;21.60;;;10.90;;
28605;SDS011;46498;49.968;7.754;2022-11-20T11:12:59;19.37;;;10.33;;
28605;SDS011;46498;49.968;7.754;2022-11-20T11:18:00;21.20;;;11.50;;
28605;SDS011;46498;49.968;7.754;2022-11-20T11:23:01;21.67;;;11.05;;
28605;SDS011;46498;49.968;7.754;2022-11-20T11:28:19;27.55;;;12.93;;
28605;SDS011;46498;49.968;7.754;2022-11-20T11:33:26;23.75;;;10.70;;
28605;SDS011;46498;49.968;7.754;2022-11-20T11:38:39;18.27;;;9.65;;
28605;SDS011;46498;49.968;7.754;2022-11-20T11:43:48;17.92;;;8.15;;
28605;SDS011;46498;49.968;7.754;2022-11-20T11:49:17;16.00;;;7.90;;
28605;SDS011;46498;49.968;7.754;2022-11-20T11:54:22;17.08;;;6.62;;
28605;SDS011;46498;49.968;7.754;2022-11-20T11:59:38;12.50;;;6.55;;
28605;SDS011;46498;49.968;7.754;2022-11-20T12:09:55;17.50;;;6.75;;
28605;SDS011;46498;49.968;7.754;2022-11-20T12:14:58;16.77;;;6.75;;
28605;SDS011;46498;49.968;7.754;2022-11-20T12:19:58;9.88;;;5.32;;
28605;SDS011;46498;49.968;7.754;2022-11-20T12:25:04;12.23;;;4.22;;
28605;SDS011;46498;49.968;7.754;2022-11-20T12:30:15;12.30;;;4.85;;
28605;SDS011;46498;49.968;7.754;2022-11-20T12:49:25;9.20;;;2.87;;
28605;SDS011;46498;49.968;7.754;2022-11-20T13:01:56;9.45;;;3.92;;
28605;SDS011;46498;49.968;7.754;2022-11-20T13:07:06;12.48;;;3.08;;
28605;SDS011;46498;49.968;7.754;2022-11-20T13:12:15;9.02;;;2.87;;
28605;SDS011;46498;49.968;7.754;2022-11-20T13:17:31;8.88;;;3.17;;
28605;SDS011;46498;49.968;7.754;2022-11-20T13:22:54;9.35;;;2.40;;
28605;SDS011;46498;49.968;7.754;2022-11-20T13:27:58;7.62;;;1.98;;
28605;SDS011;46498;49.968;7.754;2022-11-20T13:33:06;10.07;;;1.60;;
28605;SDS011;46498;49.968;7.754;2022-11-20T13:38:21;6.57;;;1.85;;
28605;SDS011;46498;49.968;7.754;2022-11-20T13:48:45;9.97;;;1.83;;
28605;SDS011;46498;49.968;7.754;2022-11-20T13:53:51;6.17;;;1.80;;
28605;SDS011;46498;49.968;7.754;2022-11-20T13:59:15;11.10;;;2.78;;
28605;SDS011;46498;49.968;7.754;2022-11-20T14:04:43;6.57;;;2.67;;
28605;SDS011;46498;49.968;7.754;2022-11-20T14:09:51;6.53;;;2.25;;
28605;SDS011;46498;49.968;7.754;2022-11-20T14:14:53;7.22;;;2.47;;
28605;SDS011;46498;49.968;7.754;2022-11-20T14:19:55;37.55;;;14.73;;
28605;SDS011;46498;49.968;7.754;2022-11-20T14:25:02;12.57;;;2.70;;
28605;SDS011;46498;49.968;7.754;2022-11-20T14:36:18;12.82;;;4.10;;
28605;SDS011;46498;49.968;7.754;2022-11-20T14:41:22;9.02;;;2.40;;
28605;SDS011;46498;49.968;7.754;2022-11-20T14:46:24;9.77;;;3.10;;
28605;SDS011;46498;49.968;7.754;2022-11-20T14:51:28;6.97;;;2.17;;
28605;SDS011;46498;49.968;7.754;2022-11-20T14:56:32;8.52;;;1.95;;
28605;SDS011;46498;49.968;7.754;2022-11-20T15:01:33;9.70;;;2.60;;
28605;SDS011;46498;49.968;7.754;2022-11-20T15:06:34;6.30;;;1.80;;
28605;SDS011;46498;49.968;7.754;2022-11-20T15:11:35;5.22;;;2.10;;
28605;SDS011;46498;49.968;7.754;2022-11-20T15:16:36;4.25;;;1.62;;
28605;SDS011;46498;49.968;7.754;2022-11-20T15:21:37;6.68;;;1.62;;
28605;SDS011;46498;49.968;7.754;2022-11-20T15:26:38;10.25;;;2.55;;
28605;SDS011;46498;49.968;7.754;2022-11-20T15:31:40;9.80;;;2.85;;
28605;SDS011;46498;49.968;7.754;2022-11-20T15:41:44;8.18;;;3.08;;
28605;SDS011;46498;49.968;7.754;2022-11-20T15:46:45;10.70;;;3.85;;
28605;SDS011;46498;49.968;7.754;2022-11-20T15:51:48;9.13;;;2.85;;
28605;SDS011;46498;49.968;7.754;2022-11-20T15:56:50;6.82;;;2.10;;
28605;SDS011;46498;49.968;7.754;2022-11-20T16:01:54;7.20;;;2.25;;
28605;SDS011;46498;49.968;7.754;2022-11-20T16:06:59;14.00;;;4.75;;
28605;SDS011;46498;49.968;7.754;2022-11-20T16:12:03;8.88;;;2.40;;
28605;SDS011;46498;49.968;7.754;2022-11-20T16:17:07;12.60;;;2.22;;
28605;SDS011;46498;49.968;7.754;2022-11-20T16:22:10;8.90;;;3.22;;
28605;SDS011;46498;49.968;7.754;2022-11-20T16:27:12;7.00;;;2.05;;
28605;SDS011;46498;49.968;7.754;2022-11-20T16:32:15;10.52;;;2.45;;
28605;SDS011;46498;49.968;7.754;2022-11-20T16:37:24;7.55;;;1.83;;
28605;SDS011;46498;49.968;7.754;2022-11-20T16:42:34;11.30;;;2.70;;
28605;SDS011;46498;49.968;7.754;2022-11-20T16:47:37;8.63;;;2.65;;
28605;SDS011;46498;49.968;7.754;2022-11-20T16:52:39;8.45;;;1.80;;
28605;SDS011;46498;49.968;7.754;2022-11-20T16:57:42;9.77;;;2.53;;
28605;SDS011;46498;49.968;7.754;2022-11-20T17:02:44;10.40;;;3.00;;
28605;SDS011;46498;49.968;7.754;2022-11-20T17:07:47;9.17;;;2.50;;
28605;SDS011;46498;49.968;7.754;2022-11-20T17:12:48;7.80;;;3.22;;
28605;SDS011;46498;49.968;7.754;2022-11-20T17:17:51;6.90;;;2.40;;
28605;SDS011;46498;49.968;7.754;2022-11-20T17:22:52;6.90;;;2.30;;
28605;SDS011;46498;49.968;7.754;2022-11-20T17:27:54;5.53;;;2.65;;
28605;SDS011;46498;49.968;7.754;2022-11-20T17:33:08;10.63;;;2.42;;
28605;SDS011;46498;49.968;7.754;2022-11-20T17:38:14;9.70;;;3.85;;
28605;SDS011;46498;49.968;7.754;2022-11-20T17:43:23;8.35;;;2.50;;
28605;SDS011;46498;49.968;7.754;2022-11-20T17:48:37;6.03;;;2.03;;
28605;SDS011;46498;49.968;7.754;2022-11-20T17:53:53;6.62;;;1.95;;
28605;SDS011;46498;49.968;7.754;2022-11-20T17:59:10;3.10;;;1.35;;
28605;SDS011;46498;49.968;7.754;2022-11-20T18:04:23;2.75;;;1.23;;
28605;SDS011;46498;49.968;7.754;2022-11-20T18:09:28;3.15;;;1.10;;
28605;SDS011;46498;49.968;7.754;2022-11-20T18:14:34;2.12;;;0.70;;
28605;SDS011;46498;49.968;7.754;2022-11-20T18:19:42;1.58;;;0.65;;
28605;SDS011;46498;49.968;7.754;2022-11-20T18:25:24;4.72;;;1.70;;
28605;SDS011;46498;49.968;7.754;2022-11-20T18:30:35;2.47;;;1.10;;
28605;SDS011;46498;49.968;7.754;2022-11-20T18:35:38;3.83;;;2.15;;
28605;SDS011;46498;49.968;7.754;2022-11-20T18:40:46;3.62;;;1.70;;
28605;SDS011;46498;49.968;7.754;2022-11-20T18:45:59;4.25;;;1.70;;
28605;SDS011;46498;49.968;7.754;2022-11-20T18:51:03;6.62;;;2.20;;
28605;SDS011;46498;49.968;7.754;2022-11-20T18:56:07;3.55;;;1.40;;
28605;SDS011;46498;49.968;7.754;2022-11-20T19:01:09;2.67;;;1.42;;
28605;SDS011;46498;49.968;7.754;2022-11-20T19:06:14;3.72;;;1.10;;
28605;SDS011;46498;49.968;7.754;2022-11-20T19:11:16;9.75;;;3.10;;
28605;SDS011;46498;49.968;7.754;2022-11-20T19:16:18;7.45;;;2.25;;
28605;SDS011;46498;49.968;7.754;2022-11-20T19:21:22;7.43;;;3.03;;
28605;SDS011;46498;49.968;7.754;2022-11-20T19:26:24;8.70;;;3.87;;
28605;SDS011;46498;49.968;7.754;2022-11-20T19:31:25;5.55;;;2.30;;
28605;SDS011;46498;49.968;7.754;2022-11-20T19:36:28;2.92;;;1.75;;
28605;SDS011;46498;49.968;7.754;2022-11-20T19:41:31;2.85;;;1.95;;
28605;SDS011;46498;49.968;7.754;2022-11-20T19:46:34;10.45;;;3.17;;
28605;SDS011;46498;49.968;7.754;2022-11-20T19:51:36;6.62;;;3.00;;
28605;SDS011;46498;49.968;7.754;2022-11-20T19:56:38;4.70;;;2.13;;
28605;SDS011;46498;49.968;7.754;2022-11-20T20:01:39;5.35;;;1.92;;
28605;SDS011;46498;49.968;7.754;2022-11-20T20:06:40;4.03;;;1.70;;
28605;SDS011;46498;49.968;7.754;2022-11-20T20:11:43;4.20;;;1.70;;
28605;SDS011;46498;49.968;7.754;2022-11-20T20:16:46;7.32;;;2.22;;
28605;SDS011;46498;49.968;7.754;2022-11-20T20:21:47;3.95;;;1.35;;
28605;SDS011;46498;49.968;7.754;2022-11-20T20:26:49;4.07;;;1.62;;
28605;SDS011;46498;49.968;7.754;2022-11-20T20:31:55;3.78;;;1.80;;
28605;SDS011;46498;49.968;7.754;2022-11-20T20:36:56;5.90;;;1.50;;
28605;SDS011;46498;49.968;7.754;2022-11-20T20:41:57;7.72;;;2.00;;
28605;SDS011;46498;49.968;7.754;2022-11-20T20:46:58;5.95;;;1.92;;
28605;SDS011;46498;49.968;7.754;2022-11-20T20:51:59;5.15;;;2.10;;
28605;SDS011;46498;49.968;7.754;2022-11-20T20:57:01;6.47;;;1.63;;
28605;SDS011;46498;49.968;7.754;2022-11-20T21:02:02;12.73;;;2.30;;
28605;SDS011;46498;49.968;7.754;2022-11-20T21:07:03;11.05;;;2.33;;
28605;SDS011;46498;49.968;7.754;2022-11-20T21:12:05;11.88;;;2.70;;
28605;SDS011;46498;49.968;7.754;2022-11-20T21:17:06;18.87;;;2.92;;
28605;SDS011;46498;49.968;7.754;2022-11-20T21:22:14;9.90;;;2.10;;
28605;SDS011;46498;49.968;7.754;2022-11-20T21:27:14;10.05;;;2.00;;
28605;SDS011;46498;49.968;7.754;2022-11-20T21:32:15;16.10;;;3.50;;
28605;SDS011;46498;49.968;7.754;2022-11-20T21:37:16;20.62;;;3.28;;
28605;SDS011;46498;49.968;7.754;2022-11-20T21:42:17;17.23;;;2.62;;
28605;SDS011;46498;49.968;7.754;2022-11-20T21:47:18;15.07;;;2.87;;
28605;SDS011;46498;49.968;7.754;2022-11-20T21:52:18;10.60;;;2.20;;
28605;SDS011;46498;49.968;7.754;2022-11-20T21:57:19;9.60;;;2.12;;
28605;SDS011;46498;49.968;7.754;2022-11-20T22:02:20;7.60;;;1.05;;
28605;SDS011;46498;49.968;7.754;2022-11-20T22:07:21;7.57;;;0.90;;
28605;SDS011;46498;49.968;7.754;2022-11-20T22:12:22;5.15;;;1.58;;
28605;SDS011;46498;49.968;7.754;2022-11-20T22:17:23;4.65;;;1.42;;
28605;SDS011;46498;49.968;7.754;2022-11-20T22:23:12;7.05;;;0.93;;
28605;SDS011;46498;49.968;7.754;2022-11-20T22:28:12;4.00;;;1.00;;
28605;SDS011;46498;49.968;7.754;2022-11-20T22:33:13;6.72;;;1.02;;
28605;SDS011;46498;49.968;7.754;2022-11-20T22:38:14;4.47;;;0.88;;
28605;SDS011;46498;49.968;7.754;2022-11-20T22:43:15;3.83;;;0.77;;
28605;SDS011;46498;49.968;7.754;2022-11-20T22:48:16;3.50;;;0.70;;
28605;SDS011;46498;49.968;7.754;2022-11-20T22:53:17;2.72;;;0.70;;
28605;SDS011;46498;49.968;7.754;2022-11-20T22:58:17;1.92;;;0.47;;
28605;SDS011;46498;49.968;7.754;2022-11-20T23:03:18;3.15;;;0.43;;
28605;SDS011;46498;49.968;7.754;2022-11-20T23:08:19;3.45;;;0.50;;
28605;SDS011;46498;49.968;7.754;2022-11-20T23:13:20;2.83;;;0.40;;
28605;SDS011;46498;49.968;7.754;2022-11-20T23:18:21;4.90;;;0.60;;
28605;SDS011;46498;49.968;7.754;2022-11-20T23:23:22;3.20;;;0.55;;
28605;SDS011;46498;49.968;7.754;2022-11-20T23:28:23;3.42;;;0.70;;
28605;SDS011;46498;49.968;7.754;2022-11-20T23:33:24;3.65;;;0.80;;
28605;SDS011;46498;49.968;7.754;2022-11-20T23:38:24;3.58;;;0.95;;
28605;SDS011;46498;49.968;7.754;2022-11-20T23:43:25;5.37;;;1.40;;
28605;SDS011;46498;49.968;7.754;2022-11-20T23:48:30;5.90;;;1.27;;
28605;SDS011;46498;49.968;7.754;2022-11-20T23:53:36;5.22;;;1.40;;
28605;SDS011;46498;49.968;7.754;2022-11-20T23:58:37;11.75;;;1.83;;
